Time;durP1;ratioP1;P1;durP2;ratioP2;P2;SDS_P1;SDS_P2;PMS_P1;PMS_P2;Temp;Humidity;BMP_temperature;BMP_pressure;BME280_temperature;BME280_humidity;BME280_pressure;Samples;Min_cycle;Max_cycle;Signal;HPM_P1;HPM_P2
2021/09/04 00:01:13;;;;;;;14.00;10.05;;;14.90;99.90;;;;;;5069299;27;20552;-75
2021/09/04 00:03:38;;;;;;;13.85;11.13;;;14.90;99.90;;;;;;5102611;28;20043;-74
2021/09/04 00:06:04;;;;;;;15.65;10.02;;;15.00;99.90;;;;;;5082883;28;20122;-74
2021/09/04 00:08:30;;;;;;;12.23;9.95;;;15.00;99.90;;;;;;5068089;27;20713;-75
2021/09/04 00:10:55;;;;;;;10.65;9.18;;;14.90;99.90;;;;;;5086521;27;20400;-74
2021/09/04 00:13:22;;;;;;;13.95;8.82;;;14.90;99.90;;;;;;5103010;28;20059;-74
2021/09/04 00:15:48;;;;;;;14.30;9.98;;;14.90;99.90;;;;;;5085093;28;20065;-75
2021/09/04 00:18:13;;;;;;;13.90;9.88;;;14.90;99.90;;;;;;5101224;28;20043;-75
2021/09/04 00:20:39;;;;;;;14.32;9.50;;;14.90;99.90;;;;;;5086894;28;20047;-75
2021/09/04 00:23:05;;;;;;;17.92;10.30;;;14.90;99.90;;;;;;5065172;27;20044;-75
2021/09/04 00:25:31;;;;;;;16.75;11.10;;;14.80;99.90;;;;;;5085376;27;20069;-74
2021/09/04 00:27:57;;;;;;;13.43;10.82;;;14.90;99.90;;;;;;5103063;28;20374;-74
2021/09/04 00:30:22;;;;;;;14.60;10.45;;;14.80;99.90;;;;;;5102684;28;20437;-75
2021/09/04 00:32:48;;;;;;;17.98;10.63;;;14.90;99.90;;;;;;5086890;28;20108;-75
2021/09/04 00:35:17;;;;;;;17.20;10.65;;;14.80;99.90;;;;;;5074421;27;20051;-75
2021/09/04 00:37:43;;;;;;;14.73;11.48;;;14.80;99.90;;;;;;5087069;27;20091;-75
2021/09/04 00:40:10;;;;;;;16.83;11.30;;;14.80;99.90;;;;;;5074497;27;20070;-75
2021/09/04 00:42:35;;;;;;;15.82;11.73;;;14.80;99.90;;;;;;5121244;27;20840;-75
2021/09/04 00:45:02;;;;;;;16.70;11.90;;;14.80;99.90;;;;;;5103209;27;20049;-74
2021/09/04 00:47:28;;;;;;;15.88;12.05;;;14.80;99.90;;;;;;5091060;27;20031;-75
2021/09/04 00:49:53;;;;;;;16.33;10.93;;;14.80;99.90;;;;;;5090757;27;20061;-75
2021/09/04 00:52:19;;;;;;;18.73;11.88;;;14.80;99.90;;;;;;5105893;27;20047;-75
2021/09/04 00:54:45;;;;;;;14.88;10.68;;;14.80;99.90;;;;;;5100132;27;20099;-75
2021/09/04 00:57:12;;;;;;;18.55;11.05;;;14.80;99.90;;;;;;5071562;27;20039;-75
2021/09/04 00:59:37;;;;;;;15.00;10.85;;;14.80;99.90;;;;;;5091464;27;20096;-74
2021/09/04 01:02:04;;;;;;;12.55;9.25;;;14.70;99.90;;;;;;5086530;27;20051;-75
2021/09/04 01:04:30;;;;;;;14.77;9.02;;;14.70;99.90;;;;;;5075314;27;20050;-74
2021/09/04 01:06:56;;;;;;;14.07;9.38;;;14.70;99.90;;;;;;5059551;27;20028;-75
2021/09/04 01:09:23;;;;;;;13.95;9.40;;;14.70;99.90;;;;;;5073524;27;20382;-75
2021/09/04 01:11:49;;;;;;;14.63;9.50;;;14.70;99.90;;;;;;5105998;27;20038;-75
2021/09/04 01:14:15;;;;;;;13.82;9.63;;;14.70;99.90;;;;;;5086234;28;20139;-75
2021/09/04 01:16:43;;;;;;;12.52;8.57;;;14.60;99.90;;;;;;5067227;28;20406;-74
2021/09/04 01:19:09;;;;;;;14.82;10.27;;;14.70;99.90;;;;;;5088508;28;20047;-73
2021/09/04 01:21:37;;;;;;;12.43;9.32;;;14.60;99.90;;;;;;5066770;28;20047;-74
2021/09/04 01:24:07;;;;;;;12.00;8.75;;;14.60;99.90;;;;;;5082796;28;20050;-74
2021/09/04 01:26:34;;;;;;;14.30;7.85;;;14.60;99.90;;;;;;5087151;28;20082;-74
2021/09/04 01:29:03;;;;;;;12.82;8.70;;;14.60;99.90;;;;;;5088104;28;20051;-74
2021/09/04 01:31:30;;;;;;;20.40;9.45;;;14.60;99.90;;;;;;5088777;28;20048;-75
2021/09/04 01:33:56;;;;;;;11.88;8.80;;;14.60;99.90;;;;;;5094710;28;20147;-74
2021/09/04 01:36:33;;;;;;;13.85;8.32;;;14.60;99.90;;;;;;5079824;28;20092;-74
2021/09/04 01:39:03;;;;;;;13.98;8.32;;;14.60;99.90;;;;;;5082055;28;20069;-74
2021/09/04 01:41:29;;;;;;;11.52;8.80;;;14.60;99.90;;;;;;5078434;28;20044;-75
2021/09/04 01:43:56;;;;;;;11.82;7.75;;;14.60;99.90;;;;;;5080570;28;20102;-74
2021/09/04 01:46:22;;;;;;;16.25;9.50;;;14.60;99.90;;;;;;5081477;28;20070;-74
2021/09/04 01:48:48;;;;;;;13.27;8.27;;;14.60;99.90;;;;;;5096043;28;20063;-74
2021/09/04 01:51:15;;;;;;;12.35;8.18;;;14.60;99.90;;;;;;5068963;28;20130;-75
2021/09/04 01:53:41;;;;;;;13.88;8.45;;;14.60;99.90;;;;;;5102587;28;20120;-74
2021/09/04 01:56:09;;;;;;;16.77;8.52;;;14.60;99.90;;;;;;5083446;28;20051;-75
2021/09/04 01:58:34;;;;;;;12.98;8.52;;;14.60;99.90;;;;;;5104547;28;20036;-74
2021/09/04 02:01:01;;;;;;;15.68;8.73;;;14.60;99.90;;;;;;5064142;28;20414;-74
2021/09/04 02:03:27;;;;;;;13.55;8.45;;;14.60;99.90;;;;;;5103670;28;20050;-74
2021/09/04 02:05:52;;;;;;;12.10;8.48;;;14.60;99.90;;;;;;5089621;28;20040;-75
2021/09/04 02:08:19;;;;;;;16.67;9.35;;;14.50;99.90;;;;;;5069709;28;20090;-74
2021/09/04 02:10:44;;;;;;;14.32;9.15;;;14.50;99.90;;;;;;5068195;28;20448;-74
2021/09/04 02:13:10;;;;;;;13.90;10.30;;;14.50;99.90;;;;;;5083946;28;20048;-74
2021/09/04 02:15:36;;;;;;;14.35;10.60;;;14.50;99.90;;;;;;5085960;28;20513;-74
2021/09/04 02:18:02;;;;;;;14.13;10.65;;;14.50;99.90;;;;;;5099718;28;20079;-74
2021/09/04 02:20:31;;;;;;;16.30;11.60;;;14.50;99.90;;;;;;5067114;28;20047;-74
2021/09/04 02:22:57;;;;;;;18.73;11.27;;;14.50;99.90;;;;;;5087062;28;20027;-75
2021/09/04 02:25:22;;;;;;;13.15;10.43;;;14.50;99.90;;;;;;5069436;28;20100;-74
2021/09/04 02:27:48;;;;;;;13.35;10.30;;;14.50;99.90;;;;;;5084279;28;20047;-74
2021/09/04 02:30:14;;;;;;;13.32;10.48;;;14.50;99.90;;;;;;5084310;28;21511;-74
2021/09/04 02:32:40;;;;;;;13.73;10.43;;;14.50;99.90;;;;;;5080510;28;20044;-74
2021/09/04 02:35:07;;;;;;;15.07;10.68;;;14.50;99.90;;;;;;5069722;28;20759;-74
2021/09/04 02:37:36;;;;;;;13.48;10.82;;;14.50;99.90;;;;;;5087533;28;20057;-74
2021/09/04 02:40:02;;;;;;;15.98;11.65;;;14.50;99.90;;;;;;5102952;28;20421;-74
2021/09/04 02:42:29;;;;;;;16.92;11.18;;;14.50;99.90;;;;;;5093593;28;20046;-74
2021/09/04 02:44:55;;;;;;;15.93;10.90;;;14.50;99.90;;;;;;5102827;28;20044;-74
2021/09/04 02:47:20;;;;;;;13.55;10.38;;;14.50;99.90;;;;;;5096292;28;20120;-75
2021/09/04 02:49:46;;;;;;;15.60;10.68;;;14.50;99.90;;;;;;5086004;28;20078;-75
2021/09/04 02:52:12;;;;;;;15.05;10.13;;;14.50;99.90;;;;;;5064755;28;20051;-74
2021/09/04 02:54:41;;;;;;;14.48;10.00;;;14.50;99.90;;;;;;5099425;28;20122;-75
2021/09/04 02:57:08;;;;;;;12.37;9.80;;;14.50;99.90;;;;;;5082016;28;20119;-75
2021/09/04 02:59:36;;;;;;;15.95;10.38;;;14.50;99.90;;;;;;5069288;28;20286;-75
2021/09/04 03:02:02;;;;;;;14.20;10.15;;;14.50;99.90;;;;;;5095875;28;20067;-74
2021/09/04 03:04:28;;;;;;;12.43;9.35;;;14.50;99.90;;;;;;5101246;28;20049;-75
2021/09/04 03:06:54;;;;;;;11.43;9.65;;;14.50;99.90;;;;;;5082458;28;20046;-75
2021/09/04 03:09:20;;;;;;;10.45;8.63;;;14.50;99.90;;;;;;5095770;28;20055;-75
2021/09/04 03:11:46;;;;;;;10.93;9.07;;;14.50;99.90;;;;;;5097771;28;20193;-75
2021/09/04 03:14:12;;;;;;;10.18;9.00;;;14.40;99.90;;;;;;5101147;28;20651;-75
2021/09/04 03:16:37;;;;;;;11.70;8.88;;;14.40;99.90;;;;;;5101011;28;20062;-75
2021/09/04 03:19:06;;;;;;;12.73;8.55;;;14.40;99.90;;;;;;5101621;28;20052;-74
2021/09/04 03:21:32;;;;;;;12.43;9.05;;;14.40;99.90;;;;;;5082124;27;20032;-74
2021/09/04 03:23:58;;;;;;;12.82;8.70;;;14.40;99.90;;;;;;5102642;28;20126;-74
2021/09/04 03:26:24;;;;;;;13.95;8.32;;;14.40;99.90;;;;;;5062207;28;20105;-74
2021/09/04 03:28:49;;;;;;;9.82;7.47;;;14.40;99.90;;;;;;5100117;28;20481;-74
2021/09/04 03:31:16;;;;;;;9.20;6.97;;;14.30;99.90;;;;;;5084364;28;20040;-75
2021/09/04 03:33:41;;;;;;;9.88;7.07;;;14.40;99.90;;;;;;5063467;28;20048;-75
2021/09/04 03:36:07;;;;;;;8.68;6.60;;;14.40;99.90;;;;;;5067765;28;20118;-74
2021/09/04 03:38:36;;;;;;;10.05;5.85;;;14.40;99.90;;;;;;5066575;28;20050;-75
2021/09/04 03:41:02;;;;;;;9.88;6.35;;;14.40;99.90;;;;;;5084960;28;20047;-75
2021/09/04 03:43:27;;;;;;;9.30;6.03;;;14.40;99.90;;;;;;5067379;28;20043;-75
2021/09/04 03:45:53;;;;;;;10.30;5.97;;;14.40;99.90;;;;;;5084040;28;20369;-75
2021/09/04 03:48:19;;;;;;;9.68;5.50;;;14.40;99.90;;;;;;5068168;28;20093;-75
2021/09/04 03:50:45;;;;;;;8.85;5.28;;;14.40;99.90;;;;;;5047652;28;20036;-75
2021/09/04 03:53:11;;;;;;;9.32;5.28;;;14.40;99.90;;;;;;5071107;28;20120;-76
2021/09/04 03:55:37;;;;;;;10.35;5.38;;;14.40;99.90;;;;;;5081835;28;20055;-73
2021/09/04 03:58:02;;;;;;;8.98;4.57;;;14.40;99.90;;;;;;5085214;28;20169;-76
2021/09/04 04:00:28;;;;;;;8.65;5.57;;;14.40;99.90;;;;;;5082513;28;20174;-73
2021/09/04 04:02:54;;;;;;;9.75;5.90;;;14.40;99.90;;;;;;5097786;28;20046;-74
2021/09/04 04:05:20;;;;;;;11.50;5.00;;;14.40;99.90;;;;;;5087217;28;20048;-74
2021/09/04 04:07:49;;;;;;;10.13;5.22;;;14.40;99.90;;;;;;5085539;28;20733;-74
2021/09/04 04:10:14;;;;;;;6.03;4.28;;;14.40;99.90;;;;;;5085508;28;20043;-74
2021/09/04 04:12:41;;;;;;;11.13;5.50;;;14.40;99.90;;;;;;5107684;28;20051;-75
2021/09/04 04:15:07;;;;;;;9.82;5.35;;;14.40;99.90;;;;;;5052940;28;20052;-74
2021/09/04 04:17:36;;;;;;;9.40;4.82;;;14.40;99.90;;;;;;5081260;28;20135;-74
2021/09/04 04:20:06;;;;;;;8.50;4.80;;;14.40;99.90;;;;;;5085578;28;20048;-76
2021/09/04 04:22:32;;;;;;;9.07;5.35;;;14.40;99.90;;;;;;5088246;28;20050;-76
2021/09/04 04:24:57;;;;;;;9.65;5.35;;;14.40;99.90;;;;;;5104419;28;20043;-75
2021/09/04 04:27:23;;;;;;;10.77;5.00;;;14.40;99.90;;;;;;5083279;28;20036;-75
2021/09/04 04:29:49;;;;;;;11.10;5.88;;;14.40;99.90;;;;;;5092908;28;20036;-76
2021/09/04 04:32:15;;;;;;;9.05;5.40;;;14.40;99.90;;;;;;5086208;28;20042;-75
2021/09/04 04:34:40;;;;;;;9.65;6.07;;;14.40;99.90;;;;;;5078780;28;20776;-76
2021/09/04 04:37:06;;;;;;;9.93;5.53;;;14.30;99.90;;;;;;5086004;28;20443;-75
2021/09/04 04:39:32;;;;;;;8.63;5.13;;;14.40;99.90;;;;;;5064709;28;20570;-75
2021/09/04 04:41:58;;;;;;;10.32;5.47;;;14.40;99.90;;;;;;5087283;28;20040;-75
2021/09/04 04:44:24;;;;;;;11.40;5.85;;;14.30;99.90;;;;;;5095283;28;20086;-76
2021/09/04 04:46:49;;;;;;;9.82;5.82;;;14.30;99.90;;;;;;5067155;28;20051;-76
2021/09/04 04:49:15;;;;;;;11.52;5.60;;;14.30;99.90;;;;;;5076508;28;20083;-75
2021/09/04 04:51:41;;;;;;;9.57;5.75;;;14.30;99.90;;;;;;5091867;28;20047;-74
2021/09/04 04:54:07;;;;;;;8.43;5.25;;;14.30;99.90;;;;;;5084377;28;20043;-73
2021/09/04 04:56:36;;;;;;;10.98;5.60;;;14.30;99.90;;;;;;5086706;28;20040;-75
2021/09/04 04:59:02;;;;;;;10.00;5.40;;;14.30;99.90;;;;;;5099167;28;20146;-75
2021/09/04 05:01:27;;;;;;;7.57;5.20;;;14.30;99.90;;;;;;5098195;28;20130;-75
2021/09/04 05:03:53;;;;;;;8.15;5.25;;;14.30;99.90;;;;;;5099905;28;20433;-75
2021/09/04 05:06:19;;;;;;;9.32;5.35;;;14.40;99.90;;;;;;5073624;28;20559;-74
2021/09/04 05:08:45;;;;;;;7.93;5.25;;;14.30;99.90;;;;;;5084415;28;20040;-75
2021/09/04 05:11:11;;;;;;;8.48;5.20;;;14.30;99.90;;;;;;5071136;28;20394;-75
2021/09/04 05:13:37;;;;;;;7.85;5.47;;;14.40;99.90;;;;;;5065546;28;20043;-75
2021/09/04 05:16:03;;;;;;;13.35;6.38;;;14.30;99.90;;;;;;5072010;28;20477;-74
2021/09/04 05:18:31;;;;;;;10.63;5.57;;;14.30;99.90;;;;;;5088089;28;20047;-74
2021/09/04 05:20:57;;;;;;;8.02;5.57;;;14.40;99.90;;;;;;5087465;27;20050;-75
2021/09/04 05:23:23;;;;;;;12.73;5.40;;;14.30;99.90;;;;;;5089538;27;20565;-75
2021/09/04 05:25:49;;;;;;;10.82;5.68;;;14.40;99.90;;;;;;5089244;27;21051;-74
2021/09/04 05:28:14;;;;;;;9.73;5.10;;;14.40;99.90;;;;;;5108590;27;20172;-74
2021/09/04 05:30:40;;;;;;;8.27;5.10;;;14.40;99.90;;;;;;5090711;27;20043;-74
2021/09/04 05:33:06;;;;;;;12.75;5.30;;;14.40;99.90;;;;;;5110728;27;20144;-74
2021/09/04 05:35:31;;;;;;;11.10;5.05;;;14.40;99.90;;;;;;5091679;27;22284;-74
2021/09/04 05:37:57;;;;;;;10.13;5.40;;;14.40;99.90;;;;;;5092259;27;20505;-80
2021/09/04 05:40:23;;;;;;;8.95;4.70;;;14.40;99.90;;;;;;5105375;27;20396;-74
2021/09/04 05:42:49;;;;;;;10.35;4.88;;;14.40;99.90;;;;;;5107515;27;20070;-74
2021/09/04 05:45:15;;;;;;;7.35;4.45;;;14.40;99.90;;;;;;5073126;27;20047;-74
2021/09/04 05:47:41;;;;;;;8.57;4.38;;;14.40;99.90;;;;;;5086017;27;20129;-75
2021/09/04 05:50:07;;;;;;;11.40;4.55;;;14.50;99.90;;;;;;5107491;27;20058;-74
2021/09/04 05:52:36;;;;;;;10.68;4.95;;;14.40;99.90;;;;;;5106564;27;20405;-74
2021/09/04 05:55:02;;;;;;;10.38;4.43;;;14.50;99.90;;;;;;5121083;27;20036;-74
2021/09/04 05:57:29;;;;;;;7.20;4.43;;;14.50;99.90;;;;;;5089638;27;20045;-74
2021/09/04 05:59:54;;;;;;;8.95;4.10;;;14.50;99.90;;;;;;5104337;27;20520;-75
2021/09/04 06:02:20;;;;;;;8.15;4.22;;;14.60;99.90;;;;;;5089657;27;20047;-75
2021/09/04 06:04:49;;;;;;;10.50;4.40;;;14.60;99.90;;;;;;5104017;27;20043;-75
2021/09/04 06:07:15;;;;;;;9.00;4.25;;;14.60;99.90;;;;;;5106059;27;20047;-75
2021/09/04 06:09:40;;;;;;;9.63;4.28;;;14.60;99.90;;;;;;5089190;27;20495;-75
2021/09/04 06:12:06;;;;;;;10.10;3.95;;;14.60;99.90;;;;;;5087837;27;20055;-75
2021/09/04 06:14:32;;;;;;;8.50;4.15;;;14.70;99.90;;;;;;5109850;27;20039;-74
2021/09/04 06:16:59;;;;;;;8.32;4.07;;;14.60;99.90;;;;;;5103525;27;20046;-75
2021/09/04 06:19:25;;;;;;;9.85;4.72;;;14.70;99.90;;;;;;5105568;27;20046;-75
2021/09/04 06:21:51;;;;;;;8.88;4.22;;;14.70;99.90;;;;;;5090262;27;20073;-75
2021/09/04 06:24:16;;;;;;;7.72;3.80;;;14.70;99.90;;;;;;5091375;27;20378;-75
2021/09/04 06:26:42;;;;;;;9.90;4.45;;;14.70;99.90;;;;;;5089326;27;20050;-75
2021/09/04 06:29:08;;;;;;;8.18;3.97;;;14.70;99.90;;;;;;5108068;27;20042;-75
2021/09/04 06:31:35;;;;;;;6.65;4.28;;;14.80;99.90;;;;;;5104635;27;20166;-75
2021/09/04 06:34:01;;;;;;;9.75;4.18;;;14.80;99.90;;;;;;5087126;27;20099;-74
2021/09/04 06:36:26;;;;;;;13.18;4.80;;;14.80;99.90;;;;;;5075124;27;20046;-74
2021/09/04 06:38:52;;;;;;;9.02;4.13;;;14.90;99.90;;;;;;5105589;27;20046;-74
2021/09/04 06:41:18;;;;;;;8.25;4.00;;;14.90;99.90;;;;;;5106723;27;20043;-75
2021/09/04 06:43:43;;;;;;;8.63;4.15;;;14.90;99.90;;;;;;5092073;27;20035;-75
2021/09/04 06:46:09;;;;;;;8.15;3.83;;;15.00;99.90;;;;;;5066905;27;20517;-75
2021/09/04 06:48:35;;;;;;;8.45;4.18;;;15.00;99.90;;;;;;5141575;27;20039;-75
2021/09/04 06:51:01;;;;;;;11.45;4.03;;;15.00;99.90;;;;;;5069626;27;20097;-74
2021/09/04 06:53:27;;;;;;;8.90;3.90;;;15.10;99.90;;;;;;5091413;27;20031;-75
2021/09/04 06:55:56;;;;;;;7.82;4.22;;;15.10;99.90;;;;;;5086316;27;20031;-74
2021/09/04 06:58:22;;;;;;;8.43;3.40;;;15.10;99.90;;;;;;5075006;27;20043;-74
2021/09/04 07:00:47;;;;;;;11.27;3.90;;;15.10;99.90;;;;;;5099191;27;20496;-75
2021/09/04 07:03:13;;;;;;;8.20;3.85;;;15.20;99.90;;;;;;5069785;27;20065;-75
2021/09/04 07:05:39;;;;;;;9.32;4.47;;;15.20;99.90;;;;;;5086568;27;20036;-75
2021/09/04 07:08:08;;;;;;;6.97;3.88;;;15.20;99.90;;;;;;5087022;27;20047;-75
2021/09/04 07:10:36;;;;;;;9.90;3.88;;;15.30;99.90;;;;;;5071931;27;20044;-75
2021/09/04 07:13:02;;;;;;;8.95;3.35;;;15.30;99.90;;;;;;5088315;27;20047;-75
2021/09/04 07:15:28;;;;;;;7.40;3.60;;;15.30;99.90;;;;;;5085015;27;20050;-74
2021/09/04 07:17:54;;;;;;;9.88;4.03;;;15.30;99.90;;;;;;5052430;27;20562;-74
2021/09/04 07:20:20;;;;;;;11.85;5.47;;;15.40;99.90;;;;;;5089129;27;20127;-73
2021/09/04 07:22:46;;;;;;;12.07;6.90;;;15.40;99.70;;;;;;5088726;27;20043;-73
2021/09/04 07:25:12;;;;;;;10.48;6.47;;;15.40;99.10;;;;;;5069193;27;20473;-75
2021/09/04 07:27:38;;;;;;;11.30;5.32;;;15.40;98.60;;;;;;5106303;27;20046;-75
2021/09/04 07:30:04;;;;;;;11.82;5.70;;;15.50;98.20;;;;;;5085528;27;20093;-75
2021/09/04 07:32:30;;;;;;;9.10;5.38;;;15.50;98.40;;;;;;5074033;27;20087;-74
2021/09/04 07:34:57;;;;;;;9.32;4.80;;;15.50;98.70;;;;;;5054719;27;20151;-74
2021/09/04 07:37:23;;;;;;;7.95;4.72;;;15.50;98.90;;;;;;5088608;27;20104;-74
2021/09/04 07:39:49;;;;;;;7.18;4.00;;;15.50;98.30;;;;;;5080612;27;20075;-76
2021/09/04 07:42:15;;;;;;;6.78;3.47;;;15.60;98.20;;;;;;5102156;27;20071;-74
2021/09/04 07:44:40;;;;;;;7.30;4.13;;;15.60;98.10;;;;;;5104298;27;20035;-74
2021/09/04 07:47:07;;;;;;;8.65;3.90;;;15.60;98.40;;;;;;5086197;27;20062;-75
2021/09/04 07:49:32;;;;;;;6.40;3.25;;;15.60;98.40;;;;;;5106873;28;20476;-75
2021/09/04 07:51:58;;;;;;;7.15;3.17;;;15.60;98.20;;;;;;5100807;27;20039;-75
2021/09/04 07:54:24;;;;;;;8.52;3.63;;;15.70;97.80;;;;;;5089339;27;20416;-75
2021/09/04 07:56:50;;;;;;;8.25;3.40;;;15.70;98.30;;;;;;5087558;27;20150;-75
2021/09/04 07:59:16;;;;;;;6.68;3.05;;;15.70;97.80;;;;;;5086760;27;20031;-75
2021/09/04 08:01:42;;;;;;;8.27;3.65;;;15.70;98.00;;;;;;5104877;27;20035;-75
2021/09/04 08:04:07;;;;;;;7.63;3.35;;;15.70;98.20;;;;;;5087809;27;20076;-75
2021/09/04 08:06:33;;;;;;;7.90;4.07;;;15.80;98.40;;;;;;5066685;28;20047;-75
2021/09/04 08:08:59;;;;;;;7.32;3.97;;;15.80;98.20;;;;;;5081560;28;20043;-75
2021/09/04 08:11:25;;;;;;;8.55;3.70;;;15.90;97.80;;;;;;5120784;27;20065;-75
2021/09/04 08:13:50;;;;;;;8.65;3.80;;;15.90;97.50;;;;;;5093557;28;20062;-75
2021/09/04 08:16:16;;;;;;;11.18;3.78;;;15.90;97.50;;;;;;5084027;28;20105;-75
2021/09/04 08:18:43;;;;;;;6.70;3.10;;;15.90;97.60;;;;;;5069493;28;20097;-74
2021/09/04 08:21:09;;;;;;;7.57;3.13;;;15.90;97.10;;;;;;5095321;28;20031;-75
2021/09/04 08:23:34;;;;;;;7.50;3.65;;;16.00;97.10;;;;;;5093282;28;20043;-74
2021/09/04 08:26:00;;;;;;;7.00;3.30;;;16.00;96.90;;;;;;5067583;28;20134;-74
2021/09/04 08:28:26;;;;;;;6.28;2.50;;;16.10;96.30;;;;;;5067192;28;20052;-74
2021/09/04 08:30:52;;;;;;;6.28;2.65;;;16.00;95.90;;;;;;5102399;28;20059;-75
2021/09/04 08:33:18;;;;;;;6.78;2.63;;;16.10;95.70;;;;;;5068793;28;20704;-74
2021/09/04 08:35:44;;;;;;;7.20;3.22;;;16.00;95.90;;;;;;5067975;28;20046;-74
2021/09/04 08:38:10;;;;;;;6.55;2.90;;;16.10;95.70;;;;;;5064672;28;20027;-74
2021/09/04 08:40:41;;;;;;;9.55;2.78;;;16.10;95.90;;;;;;5095334;28;20097;-75
2021/09/04 08:43:08;;;;;;;8.98;3.22;;;16.20;95.80;;;;;;5082016;28;20067;-74
2021/09/04 08:45:37;;;;;;;6.72;3.17;;;16.20;95.60;;;;;;5077299;28;20502;-74
2021/09/04 08:48:07;;;;;;;7.45;2.97;;;16.20;95.40;;;;;;5091429;28;20036;-75
2021/09/04 08:50:33;;;;;;;;;;;16.30;95.30;;;;;;5081301;28;20730;-74
2021/09/04 08:53:02;;;;;;;6.50;2.83;;;16.20;95.40;;;;;;5083062;28;19924;-74
2021/09/04 08:55:29;;;;;;;7.10;3.67;;;16.20;95.80;;;;;;5071577;28;20101;-75
2021/09/04 08:58:21;;;;;;;7.88;3.70;;;16.30;95.90;;;;;;5075890;28;20400;-75
2021/09/04 09:00:47;;;;;;;7.57;3.83;;;16.30;95.10;;;;;;5099165;28;20056;-75
2021/09/04 09:03:25;;;;;;;9.70;3.53;;;16.40;95.20;;;;;;5097177;28;20051;-74
2021/09/04 09:05:52;;;;;;;9.07;3.70;;;16.40;95.40;;;;;;5103356;28;20040;-75
2021/09/04 09:08:23;;;;;;;7.15;3.55;;;16.40;94.80;;;;;;5100801;28;20387;-74
2021/09/04 09:10:50;;;;;;;8.93;4.00;;;16.50;94.80;;;;;;5128707;27;20058;-75
2021/09/04 09:13:18;;;;;;;6.47;3.17;;;16.60;95.40;;;;;;5087086;28;20100;-74
2021/09/04 09:15:44;;;;;;;6.85;3.50;;;16.70;95.40;;;;;;5085037;28;20059;-74
2021/09/04 09:18:12;;;;;;;10.43;3.45;;;17.00;95.50;;;;;;5095293;28;20398;-74
2021/09/04 09:20:43;;;;;;;6.28;3.20;;;17.30;94.70;;;;;;5098030;28;20043;-74
2021/09/04 09:23:15;;;;;;;6.78;3.17;;;17.50;94.10;;;;;;5068660;28;20043;-74
2021/09/04 09:25:43;;;;;;;6.90;3.13;;;17.60;94.10;;;;;;5081051;28;20044;-74
2021/09/04 09:28:17;;;;;;;7.57;3.97;;;17.70;94.10;;;;;;5081572;28;20067;-74
2021/09/04 09:30:50;;;;;;;5.43;3.20;;;17.80;93.60;;;;;;5076125;28;20332;-74
2021/09/04 09:33:21;;;;;;;9.52;3.88;;;17.70;92.70;;;;;;5080394;28;20059;-74
2021/09/04 09:35:52;;;;;;;6.38;3.85;;;17.60;92.90;;;;;;5098189;28;20054;-74
2021/09/04 09:38:21;;;;;;;6.63;3.53;;;17.70;92.50;;;;;;5082169;28;20059;-74
2021/09/04 09:40:48;;;;;;;7.53;3.47;;;17.70;93.00;;;;;;5085205;28;20054;-73
2021/09/04 09:43:14;;;;;;;7.47;4.05;;;17.80;92.50;;;;;;5103942;28;20044;-75
2021/09/04 09:45:46;;;;;;;5.75;3.63;;;17.70;93.00;;;;;;5077368;28;20047;-74
2021/09/04 09:48:12;;;;;;;8.98;4.07;;;17.70;93.10;;;;;;5103261;28;20552;-74
2021/09/04 09:50:38;;;;;;;7.35;3.70;;;17.70;92.90;;;;;;5100196;28;20043;-74
2021/09/04 09:53:05;;;;;;;10.55;4.68;;;17.90;92.90;;;;;;5099558;28;20023;-74
2021/09/04 09:55:31;;;;;;;6.70;3.45;;;18.10;92.10;;;;;;5093876;28;20100;-74
2021/09/04 09:57:58;;;;;;;7.18;3.70;;;18.20;92.20;;;;;;5065772;28;20074;-74
2021/09/04 10:00:30;;;;;;;7.75;3.65;;;18.50;92.00;;;;;;5093584;28;20051;-74
2021/09/04 10:03:01;;;;;;;7.38;3.58;;;18.70;91.60;;;;;;5097968;28;20044;-74
2021/09/04 10:05:30;;;;;;;7.85;3.78;;;18.90;91.60;;;;;;5096183;28;20039;-75
2021/09/04 10:07:57;;;;;;;10.18;3.60;;;19.10;90.30;;;;;;5067475;28;20047;-74
2021/09/04 10:10:43;;;;;;;6.00;3.92;;;19.20;90.00;;;;;;5087690;28;20406;-74
2021/09/04 10:13:14;;;;;;;7.07;3.42;;;19.20;90.10;;;;;;5086517;28;20778;-74
2021/09/04 10:15:45;;;;;;;8.80;4.10;;;19.30;90.30;;;;;;5088612;28;20050;-74
2021/09/04 10:18:12;;;;;;;6.88;3.72;;;19.40;89.40;;;;;;5100621;28;20054;-74
2021/09/04 10:20:38;;;;;;;11.00;4.25;;;19.30;88.70;;;;;;5104879;28;21748;-73
2021/09/04 10:23:40;;;;;;;8.27;3.78;;;19.00;89.10;;;;;;5086804;28;20084;-76
2021/09/04 10:26:21;;;;;;;8.73;4.25;;;18.80;90.10;;;;;;5102789;28;20437;-72
2021/09/04 10:29:12;;;;;;;8.20;4.03;;;18.90;89.40;;;;;;5099184;28;20104;-75
2021/09/04 10:31:48;;;;;;;9.25;4.18;;;19.00;90.00;;;;;;5096777;28;20047;-75
2021/09/04 10:34:25;;;;;;;9.35;4.65;;;19.10;90.30;;;;;;5080824;28;20040;-74
2021/09/04 10:37:03;;;;;;;11.23;4.78;;;19.40;89.60;;;;;;5102717;28;20047;-74
2021/09/04 10:39:48;;;;;;;11.10;4.57;;;19.50;88.70;;;;;;5081989;28;20035;-74
2021/09/04 10:42:22;;;;;;;7.82;4.30;;;19.70;88.50;;;;;;5079551;28;20044;-76
2021/09/04 10:45:03;;;;;;;7.18;4.38;;;19.80;86.60;;;;;;5086627;28;20112;-75
2021/09/04 10:47:43;;;;;;;11.57;5.10;;;19.80;86.30;;;;;;5087309;28;20047;-75
2021/09/04 10:50:31;;;;;;;9.60;5.20;;;19.90;87.50;;;;;;5097822;28;20466;-75
2021/09/04 10:53:04;;;;;;;8.18;4.80;;;20.10;87.20;;;;;;5083496;28;20043;-74
2021/09/04 10:55:41;;;;;;;9.20;4.78;;;20.10;86.20;;;;;;5087061;28;20074;-75
2021/09/04 10:58:16;;;;;;;11.48;4.60;;;20.00;85.60;;;;;;5099831;28;20071;-75
2021/09/04 11:00:42;;;;;;;8.93;4.20;;;20.00;86.50;;;;;;5084347;28;20043;-74
2021/09/04 11:03:13;;;;;;;7.95;4.55;;;20.00;87.20;;;;;;5083771;28;20104;-75
2021/09/04 11:05:56;;;;;;;12.00;5.38;;;20.10;85.60;;;;;;5101222;28;20047;-75
2021/09/04 11:08:32;;;;;;;11.57;5.07;;;20.10;85.70;;;;;;5101825;28;20051;-74
2021/09/04 11:11:12;;;;;;;9.85;5.13;;;20.10;85.50;;;;;;5082131;28;20051;-75
2021/09/04 11:13:39;;;;;;;;;;;19.90;85.60;;;;;;5103145;27;20040;-75
2021/09/04 11:16:24;;;;;;;11.48;4.97;;;19.90;85.80;;;;;;5105085;27;19920;-75
2021/09/04 11:18:50;;;;;;;14.68;6.32;;;19.80;87.00;;;;;;5103592;27;20130;-75
2021/09/04 11:21:17;;;;;;;16.52;6.95;;;19.80;86.20;;;;;;5106064;27;20550;-75
2021/09/04 11:23:43;;;;;;;10.93;6.20;;;19.90;85.80;;;;;;5069581;27;20051;-76
2021/09/04 11:26:10;;;;;;;12.07;5.38;;;20.00;86.30;;;;;;5091712;27;20046;-75
2021/09/04 11:28:36;;;;;;;10.57;5.53;;;20.20;86.80;;;;;;5085524;27;20047;-75
2021/09/04 11:31:03;;;;;;;9.43;5.25;;;20.30;85.80;;;;;;5105630;27;20083;-75
2021/09/04 11:33:29;;;;;;;9.63;5.65;;;20.30;85.40;;;;;;5071188;27;20095;-74
2021/09/04 11:35:55;;;;;;;7.85;5.40;;;20.40;84.50;;;;;;5087440;27;20068;-75
2021/09/04 11:38:22;;;;;;;12.13;6.22;;;20.50;85.00;;;;;;5101530;27;20505;-75
2021/09/04 11:40:50;;;;;;;9.80;6.03;;;20.60;85.00;;;;;;5102261;27;20516;-75
2021/09/04 11:43:18;;;;;;;12.65;6.80;;;20.50;85.40;;;;;;5103142;27;20039;-75
2021/09/04 11:45:45;;;;;;;11.43;6.20;;;20.60;83.70;;;;;;5071634;27;20039;-75
2021/09/04 11:48:13;;;;;;;11.85;7.25;;;20.60;83.30;;;;;;5084197;27;20385;-75
2021/09/04 11:50:39;;;;;;;11.90;7.00;;;20.50;82.40;;;;;;5106897;27;20165;-75
2021/09/04 11:53:13;;;;;;;11.98;5.95;;;20.50;83.50;;;;;;5084199;27;20043;-75
2021/09/04 11:55:40;;;;;;;9.68;6.45;;;20.60;84.50;;;;;;5082731;28;20124;-74
2021/09/04 11:58:12;;;;;;;8.90;6.13;;;20.80;85.40;;;;;;5072236;27;20047;-74
2021/09/04 12:00:42;;;;;;;9.75;6.97;;;21.00;85.30;;;;;;5099254;27;20047;-75
2021/09/04 12:03:13;;;;;;;11.38;6.88;;;21.10;83.30;;;;;;5101147;27;20135;-75
2021/09/04 12:05:45;;;;;;;16.45;7.75;;;20.90;81.80;;;;;;5105524;27;20172;-74
2021/09/04 12:08:21;;;;;;;11.07;7.57;;;20.70;81.80;;;;;;5082874;28;20054;-75
2021/09/04 12:10:47;;;;;;;34.22;8.85;;;20.70;80.90;;;;;;5104614;27;20047;-74
2021/09/04 12:13:25;;;;;;;11.50;7.15;;;20.60;81.80;;;;;;5084869;27;20114;-74
2021/09/04 12:15:56;;;;;;;12.00;7.10;;;20.70;82.30;;;;;;5079598;28;20127;-74
2021/09/04 12:18:30;;;;;;;9.93;7.43;;;20.80;83.30;;;;;;5109449;27;20505;-74
2021/09/04 12:20:57;;;;;;;13.68;7.72;;;20.90;82.90;;;;;;5062393;28;20032;-75
2021/09/04 12:23:26;;;;;;;12.70;7.40;;;21.00;79.70;;;;;;5068611;28;20067;-74
2021/09/04 12:26:02;;;;;;;14.27;8.30;;;20.90;81.00;;;;;;5070910;28;20036;-74
2021/09/04 12:28:28;;;;;;;11.93;7.90;;;20.90;83.20;;;;;;5054683;28;20071;-74
2021/09/04 12:31:01;;;;;;;11.55;9.07;;;21.00;85.30;;;;;;5079379;28;20123;-74
2021/09/04 12:33:29;;;;;;;12.85;7.75;;;21.00;82.90;;;;;;5080088;28;20498;-74
2021/09/04 12:36:01;;;;;;;14.88;8.27;;;21.10;82.10;;;;;;5099397;28;20050;-74
2021/09/04 12:38:29;;;;;;;12.48;7.32;;;21.10;82.60;;;;;;5078536;28;20043;-74
2021/09/04 12:41:00;;;;;;;12.00;7.50;;;21.30;83.10;;;;;;5110886;27;20383;-74
2021/09/04 12:43:26;;;;;;;10.60;7.35;;;21.40;84.20;;;;;;5060242;28;20135;-74